Time;durP1;ratioP1;P1;durP2;ratioP2;P2;SDS_P1;SDS_P2;PMS_P1;PMS_P2;Temp;Humidity;BMP_temperature;BMP_pressure;BME280_temperature;BME280_humidity;BME280_pressure;Samples;Min_cycle;Max_cycle;Signal;HPM_P1;HPM_P2
2023/12/08 00:01:36;;;;;;;10.43;6.87;;;;;;;0.93;100.00;97616.13;5054887;28;20223;-78
2023/12/08 00:04:02;;;;;;;13.77;7.20;;;;;;;0.90;100.00;97609.31;5054318;28;20217;-78
2023/12/08 00:06:29;;;;;;;11.83;7.03;;;;;;;0.87;100.00;97632.00;5054453;28;20215;-78
2023/12/08 00:08:56;;;;;;;12.90;7.40;;;;;;;0.80;100.00;97626.16;5054969;28;20232;-78
2023/12/08 00:11:24;;;;;;;10.40;6.83;;;;;;;0.82;100.00;97639.97;5058325;28;20228;-78
2023/12/08 00:13:50;;;;;;;11.53;7.67;;;;;;;0.82;100.00;97637.38;5058956;28;20208;-78
2023/12/08 00:16:17;;;;;;;11.60;7.30;;;;;;;0.87;100.00;97637.19;5058635;28;20220;-78
2023/12/08 00:18:43;;;;;;;11.20;7.30;;;;;;;0.90;100.00;97627.50;5059988;28;20208;-78
2023/12/08 00:21:10;;;;;;;11.43;7.23;;;;;;;0.92;100.00;97609.25;5062365;28;20237;-78
2023/12/08 00:23:36;;;;;;;12.93;8.77;;;;;;;0.92;100.00;97589.25;5053386;28;20755;-78
2023/12/08 00:26:03;;;;;;;11.27;7.20;;;;;;;0.92;100.00;97594.47;5073481;28;20204;-78
2023/12/08 00:28:31;;;;;;;12.20;6.57;;;;;;;0.91;100.00;97577.16;5072923;28;20227;-78
2023/12/08 00:30:57;;;;;;;13.73;6.93;;;;;;;1.14;100.00;97552.81;5074452;28;20204;-80
2023/12/08 00:33:24;;;;;;;12.17;6.80;;;;;;;1.09;100.00;97567.75;5073131;28;20572;-80
2023/12/08 00:35:50;;;;;;;10.17;6.30;;;;;;;0.97;100.00;97545.72;5074797;28;20202;-79
2023/12/08 00:38:17;;;;;;;9.73;6.30;;;;;;;1.00;100.00;97535.16;5074720;28;20231;-78
2023/12/08 00:40:43;;;;;;;10.80;6.37;;;;;;;1.00;100.00;97555.97;5076037;28;20200;-79
2023/12/08 00:43:10;;;;;;;10.63;6.13;;;;;;;0.97;100.00;97566.53;5073018;28;20204;-80
2023/12/08 00:45:38;;;;;;;10.73;6.30;;;;;;;0.98;100.00;97568.22;5074037;28;20199;-78
2023/12/08 00:48:05;;;;;;;9.57;6.73;;;;;;;0.99;100.00;97556.88;5074908;28;20281;-78
2023/12/08 00:50:32;;;;;;;10.57;6.83;;;;;;;1.04;100.00;97549.75;5074853;28;20200;-78
2023/12/08 00:52:58;;;;;;;10.53;7.10;;;;;;;1.03;100.00;97539.41;5075766;28;20242;-80
2023/12/08 00:55:25;;;;;;;12.40;7.03;;;;;;;1.14;100.00;97525.06;5076147;28;20222;-80
2023/12/08 00:57:51;;;;;;;12.17;7.00;;;;;;;1.14;100.00;97558.03;5074089;28;20580;-78
2023/12/08 01:00:18;;;;;;;14.17;7.50;;;;;;;1.12;100.00;97541.63;5072775;28;20216;-80
2023/12/08 01:02:46;;;;;;;11.83;6.63;;;;;;;1.15;100.00;97555.38;5076188;28;20754;-79
2023/12/08 01:05:13;;;;;;;9.57;7.07;;;;;;;1.09;100.00;97576.44;5072894;28;20217;-80
2023/12/08 01:07:39;;;;;;;10.33;6.77;;;;;;;1.15;100.00;97580.53;5074061;28;20211;-79
2023/12/08 01:10:07;;;;;;;10.53;6.53;;;;;;;1.23;100.00;97553.28;5072854;28;20235;-80
2023/12/08 01:12:33;;;;;;;10.93;7.23;;;;;;;1.13;100.00;97544.19;5076524;28;20592;-80
2023/12/08 01:15:00;;;;;;;12.47;6.97;;;;;;;1.13;100.00;97532.91;5071924;28;20227;-80
2023/12/08 01:17:26;;;;;;;10.90;6.87;;;;;;;1.19;100.00;97517.91;5077733;28;20208;-79
2023/12/08 01:19:54;;;;;;;12.80;7.47;;;;;;;1.31;100.00;97499.16;5077763;28;20203;-79
2023/12/08 01:22:23;;;;;;;10.83;7.03;;;;;;;1.41;100.00;97471.81;5073838;28;20231;-80
2023/12/08 01:24:49;;;;;;;10.53;6.57;;;;;;;1.42;100.00;97477.88;5039050;28;20549;-79
2023/12/08 01:27:16;;;;;;;13.43;7.20;;;;;;;1.22;100.00;97483.94;5054508;28;20212;-80
2023/12/08 01:29:42;;;;;;;11.40;6.43;;;;;;;1.09;100.00;97497.50;5050895;28;20273;-80
2023/12/08 01:32:09;;;;;;;10.53;6.93;;;;;;;1.03;100.00;97501.22;5062601;28;20640;-78
2023/12/08 01:34:35;;;;;;;12.13;7.63;;;;;;;1.04;100.00;97510.72;5055645;28;20218;-80
2023/12/08 01:37:03;;;;;;;12.97;7.53;;;;;;;1.05;100.00;97537.59;5047060;28;20207;-78
2023/12/08 01:39:30;;;;;;;12.97;7.83;;;;;;;1.08;100.00;97556.53;5056307;28;20200;-80
2023/12/08 01:41:56;;;;;;;13.30;7.27;;;;;;;1.14;100.00;97543.25;5047370;28;20239;-80
2023/12/08 01:44:23;;;;;;;12.10;7.13;;;;;;;1.14;100.00;97537.19;5061044;28;20757;-80
2023/12/08 01:46:50;;;;;;;15.17;7.53;;;;;;;1.17;100.00;97535.31;5050743;28;20216;-80
2023/12/08 01:49:17;;;;;;;13.03;8.00;;;;;;;1.19;100.00;97525.72;5042134;28;20253;-77
2023/12/08 01:51:45;;;;;;;11.40;7.00;;;;;;;1.21;100.00;97523.03;5047885;28;20240;-78
2023/12/08 01:54:15;;;;;;;9.93;6.63;;;;;;;1.16;100.00;97525.81;5048733;28;20218;-80
2023/12/08 01:56:42;;;;;;;10.63;6.87;;;;;;;1.18;100.00;97518.78;5039163;28;20212;-78
2023/12/08 01:59:09;;;;;;;12.03;7.10;;;;;;;1.17;100.00;97521.47;5044149;28;20215;-77
2023/12/08 02:01:36;;;;;;;12.20;7.80;;;;;;;1.14;100.00;97517.25;5051091;28;20368;-79
2023/12/08 02:04:05;;;;;;;11.10;6.87;;;;;;;1.16;100.00;97520.63;5053294;28;20714;-80
2023/12/08 02:06:31;;;;;;;12.47;7.60;;;;;;;1.16;100.00;97519.78;5058257;28;20210;-78
2023/12/08 02:08:59;;;;;;;10.53;6.90;;;;;;;1.14;100.00;97517.25;5058859;28;20227;-80
2023/12/08 02:11:26;;;;;;;11.77;7.00;;;;;;;1.17;100.00;97517.09;5058087;28;20236;-80
2023/12/08 02:13:54;;;;;;;10.57;7.30;;;;;;;1.19;100.00;97520.50;5056877;28;20208;-80
2023/12/08 02:16:26;;;;;;;12.13;7.97;;;;;;;1.19;100.00;97520.50;5055359;28;20846;-79
2023/12/08 02:18:54;;;;;;;9.17;6.60;;;;;;;1.14;100.00;97517.25;5054288;28;20675;-79
2023/12/08 02:21:21;;;;;;;13.73;7.53;;;;;;;1.08;100.00;97517.50;5058313;28;20240;-79
2023/12/08 02:23:49;;;;;;;11.30;7.73;;;;;;;1.06;100.00;97508.88;5060441;28;20209;-79
2023/12/08 02:26:17;;;;;;;10.57;6.63;;;;;;;1.09;100.00;97519.19;5053439;28;20219;-80
2023/12/08 02:28:44;;;;;;;12.60;7.77;;;;;;;1.06;100.00;97508.88;5055201;28;20227;-80
2023/12/08 02:31:14;;;;;;;12.43;7.60;;;;;;;1.04;100.00;97505.53;5054181;28;20232;-80
2023/12/08 02:33:46;;;;;;;13.90;8.13;;;;;;;1.07;100.00;97510.63;5055431;28;20210;-77
2023/12/08 02:36:16;;;;;;;14.37;7.43;;;;;;;1.08;100.00;97501.88;5057763;28;20596;-78
2023/12/08 02:38:43;;;;;;;11.33;7.53;;;;;;;1.06;100.00;97513.28;5056799;28;20308;-78
2023/12/08 02:41:11;;;;;;;11.63;7.20;;;;;;;1.03;100.00;97506.44;5056708;28;20235;-78
2023/12/08 02:43:38;;;;;;;10.73;7.07;;;;;;;1.08;100.00;97511.44;5056077;28;20208;-78
2023/12/08 02:46:04;;;;;;;11.90;7.57;;;;;;;1.09;100.00;97511.38;5056202;28;20204;-78
2023/12/08 02:48:31;;;;;;;12.20;7.40;;;;;;;1.05;100.00;97496.78;5056674;28;20215;-78
2023/12/08 02:50:57;;;;;;;11.63;7.27;;;;;;;1.03;100.00;97508.19;5057270;28;20230;-78
2023/12/08 02:53:24;;;;;;;11.53;8.10;;;;;;;0.99;100.00;97506.63;5056536;28;20211;-78
2023/12/08 02:55:50;;;;;;;13.43;8.47;;;;;;;1.08;100.00;97507.09;5055927;28;20212;-78
2023/12/08 02:58:18;;;;;;;11.50;7.40;;;;;;;1.13;100.00;97504.28;5056656;28;20204;-78
2023/12/08 03:00:44;;;;;;;11.60;7.17;;;;;;;1.09;100.00;97497.50;5057366;28;20675;-78
2023/12/08 03:03:11;;;;;;;11.87;6.67;;;;;;;1.13;100.00;97483.47;5056658;28;20216;-78
2023/12/08 03:05:37;;;;;;;10.87;7.07;;;;;;;1.10;100.00;97479.25;5055761;28;20214;-78
2023/12/08 03:08:04;;;;;;;11.30;6.97;;;;;;;1.11;100.00;97474.91;5056679;28;20238;-78
2023/12/08 03:10:30;;;;;;;10.73;6.83;;;;;;;1.07;100.00;97483.72;5056171;28;20224;-78
2023/12/08 03:12:57;;;;;;;10.77;6.80;;;;;;;1.03;100.00;97479.56;5056142;28;20259;-78
2023/12/08 03:15:25;;;;;;;12.57;7.40;;;;;;;1.00;100.00;97472.72;5056228;28;20208;-78
2023/12/08 03:17:52;;;;;;;10.47;6.90;;;;;;;0.99;100.00;97476.25;5056603;28;20212;-78
2023/12/08 03:20:18;;;;;;;8.33;6.03;;;;;;;0.98;100.00;97458.94;5056496;28;20212;-78
2023/12/08 03:22:44;;;;;;;9.87;6.20;;;;;;;1.04;100.00;97453.47;5056700;28;20228;-78
2023/12/08 03:25:11;;;;;;;10.90;7.30;;;;;;;1.00;100.00;97466.69;5056672;28;20212;-78
2023/12/08 03:27:37;;;;;;;11.27;6.77;;;;;;;1.02;100.00;97480.47;5056229;28;20208;-78
2023/12/08 03:30:05;;;;;;;12.83;7.67;;;;;;;1.08;100.00;97481.06;5056513;28;20232;-78
2023/12/08 03:32:33;;;;;;;12.13;6.87;;;;;;;1.05;100.00;97456.94;5056568;28;20233;-78
2023/12/08 03:35:00;;;;;;;12.10;7.47;;;;;;;1.06;100.00;97448.22;5056169;28;20208;-78
2023/12/08 03:37:26;;;;;;;11.17;6.67;;;;;;;1.14;100.00;97465.19;5056522;28;20703;-78
2023/12/08 03:39:55;;;;;;;10.80;6.20;;;;;;;1.11;100.00;97473.13;5056849;28;20556;-78
2023/12/08 03:42:21;;;;;;;9.83;6.20;;;;;;;1.12;100.00;97469.59;5056572;28;20789;-78
2023/12/08 03:44:48;;;;;;;11.37;7.37;;;;;;;1.12;100.00;97461.78;5056654;28;20235;-78
2023/12/08 03:47:16;;;;;;;12.00;6.20;;;;;;;1.15;100.00;97474.69;5060797;28;20208;-78
2023/12/08 03:49:43;;;;;;;12.80;7.40;;;;;;;1.13;100.00;97484.34;5061016;28;20231;-78
2023/12/08 03:52:10;;;;;;;12.70;7.53;;;;;;;1.19;100.00;97491.03;5060976;28;20224;-78
2023/12/08 03:54:36;;;;;;;14.27;7.87;;;;;;;1.22;100.00;97486.53;5060912;28;20323;-78
2023/12/08 03:57:03;;;;;;;11.73;7.17;;;;;;;1.27;100.00;97481.97;5061725;28;20212;-78
2023/12/08 03:59:29;;;;;;;11.27;7.00;;;;;;;1.33;100.00;97479.13;5061348;28;20212;-78
2023/12/08 04:01:56;;;;;;;11.17;6.97;;;;;;;1.33;100.00;97471.31;5060882;28;20238;-78
2023/12/08 04:04:22;;;;;;;10.00;6.27;;;;;;;1.27;100.00;97461.16;5060588;28;20216;-78
2023/12/08 04:06:49;;;;;;;11.90;6.57;;;;;;;1.28;100.00;97475.84;5061218;28;20223;-78
2023/12/08 04:09:16;;;;;;;13.20;7.70;;;;;;;1.29;100.00;97474.94;5061108;28;20236;-78
2023/12/08 04:11:42;;;;;;;11.17;6.93;;;;;;;1.27;100.00;97489.78;5061129;28;20228;-78
2023/12/08 04:14:09;;;;;;;11.80;6.80;;;;;;;1.24;100.00;97492.50;5059820;28;20223;-78
2023/12/08 04:16:35;;;;;;;11.37;6.57;;;;;;;1.21;100.00;97491.78;5060789;28;20204;-78
2023/12/08 04:19:01;;;;;;;10.90;6.87;;;;;;;1.19;100.00;97494.47;5060702;28;20212;-78
2023/12/08 04:21:28;;;;;;;10.67;6.67;;;;;;;1.24;100.00;97492.50;5060159;28;20234;-78
2023/12/08 04:23:56;;;;;;;12.23;6.80;;;;;;;1.27;100.00;97500.19;5060152;28;20212;-78
2023/12/08 04:26:24;;;;;;;12.70;6.50;;;;;;;1.31;100.00;97509.56;5060431;28;20208;-78
2023/12/08 04:28:51;;;;;;;10.00;6.57;;;;;;;1.37;100.00;97504.13;5059743;28;20206;-78
2023/12/08 04:31:18;;;;;;;9.50;6.07;;;;;;;1.47;100.00;97500.19;5060749;28;20232;-78
2023/12/08 04:33:45;;;;;;;10.83;6.57;;;;;;;1.56;100.00;97486.78;5060793;28;20215;-78
2023/12/08 04:36:11;;;;;;;10.73;6.17;;;;;;;1.58;100.00;97464.09;5059649;28;20214;-78
2023/12/08 04:38:38;;;;;;;12.03;7.10;;;;;;;1.63;100.00;97454.34;5059413;28;20208;-79
2023/12/08 04:41:05;;;;;;;9.30;6.03;;;;;;;1.63;100.00;97469.97;5059643;28;20224;-78
2023/12/08 04:43:32;;;;;;;8.53;5.60;;;;;;;1.63;100.00;97475.16;5059829;28;20216;-79
2023/12/08 04:45:59;;;;;;;9.17;5.80;;;;;;;1.65;100.00;97478.53;5059465;28;20212;-78
2023/12/08 04:48:25;;;;;;;10.73;6.50;;;;;;;1.67;100.00;97475.88;5060689;28;20212;-78
2023/12/08 04:50:52;;;;;;;10.40;6.57;;;;;;;1.69;100.00;97477.50;5060962;28;20725;-79
2023/12/08 04:53:18;;;;;;;11.03;7.17;;;;;;;1.65;100.00;97477.72;5062798;28;20211;-79
2023/12/08 04:55:45;;;;;;;9.73;6.50;;;;;;;1.58;100.00;97461.50;5063339;28;20212;-79
2023/12/08 04:58:13;;;;;;;11.63;7.67;;;;;;;1.56;100.00;97460.75;5064010;28;20219;-78
2023/12/08 05:00:40;;;;;;;11.60;6.77;;;;;;;1.51;100.00;97460.09;5062946;28;20296;-78
2023/12/08 05:03:06;;;;;;;11.37;6.70;;;;;;;1.46;100.00;97464.66;5062277;28;20598;-79
2023/12/08 05:05:32;;;;;;;12.63;7.37;;;;;;;1.37;100.00;97467.66;5063034;28;20213;-78
2023/12/08 05:07:59;;;;;;;11.10;7.30;;;;;;;1.36;100.00;97460.75;5063924;28;20626;-78
2023/12/08 05:10:25;;;;;;;13.93;7.10;;;;;;;1.36;100.00;97455.53;5064234;28;20232;-79
2023/12/08 05:12:52;;;;;;;10.13;6.20;;;;;;;1.37;100.00;97462.47;5064417;28;20238;-78
2023/12/08 05:15:20;;;;;;;11.23;6.63;;;;;;;1.39;100.00;97458.03;5063004;28;20204;-79
2023/12/08 05:17:46;;;;;;;11.30;6.63;;;;;;;1.36;100.00;97445.13;5063841;28;20212;-78
2023/12/08 05:20:13;;;;;;;10.33;6.40;;;;;;;1.43;100.00;97461.34;5064309;28;20565;-78
2023/12/08 05:22:40;;;;;;;12.00;7.20;;;;;;;1.38;100.00;97458.94;5063917;28;20228;-78
2023/12/08 05:25:08;;;;;;;9.30;6.03;;;;;;;1.47;100.00;97449.88;5063292;28;20670;-79
2023/12/08 05:27:34;;;;;;;10.27;6.83;;;;;;;1.41;100.00;97464.00;5064130;28;20637;-78
2023/12/08 05:30:01;;;;;;;10.47;6.53;;;;;;;1.37;100.00;97461.59;5063419;28;20255;-79
2023/12/08 05:32:29;;;;;;;10.10;6.33;;;;;;;1.38;100.00;97466.75;5063991;28;20225;-78
2023/12/08 05:34:55;;;;;;;11.73;6.97;;;;;;;1.41;100.00;97458.78;5063519;28;20212;-78
2023/12/08 05:37:22;;;;;;;10.67;6.27;;;;;;;1.40;100.00;97457.09;5063751;28;20306;-78
2023/12/08 05:39:48;;;;;;;10.07;6.67;;;;;;;1.46;100.00;97461.19;5064126;28;20218;-78
2023/12/08 05:42:15;;;;;;;10.50;6.40;;;;;;;1.49;100.00;97461.94;5062612;28;20314;-79
2023/12/08 05:44:41;;;;;;;10.03;6.30;;;;;;;1.51;100.00;97465.28;5060739;28;20697;-79
2023/12/08 05:47:08;;;;;;;13.13;7.07;;;;;;;1.55;100.00;97466.00;5061591;28;20548;-78
2023/12/08 05:49:35;;;;;;;13.17;7.63;;;;;;;1.56;100.00;97458.13;5061192;28;20267;-78
2023/12/08 05:52:03;;;;;;;12.60;7.67;;;;;;;1.60;100.00;97459.66;5061555;28;20229;-78
2023/12/08 05:54:29;;;;;;;12.90;7.67;;;;;;;1.60;100.00;97469.25;5061661;28;20212;-78
2023/12/08 05:56:58;;;;;;;11.80;7.60;;;;;;;1.59;100.00;97464.97;5062585;28;20215;-79
2023/12/08 05:59:24;;;;;;;14.57;8.53;;;;;;;1.64;100.00;97469.03;5062669;28;20212;-79
2023/12/08 06:01:51;;;;;;;15.97;7.83;;;;;;;1.65;100.00;97454.28;5063784;28;20263;-79
2023/12/08 06:04:18;;;;;;;12.50;7.97;;;;;;;1.63;100.00;97456.94;5063339;28;20594;-78
2023/12/08 06:06:46;;;;;;;14.67;8.17;;;;;;;1.65;100.00;97462.91;5063392;28;20215;-78
2023/12/08 06:09:12;;;;;;;13.63;8.50;;;;;;;1.62;100.00;97468.28;5062211;28;20212;-78
2023/12/08 06:11:39;;;;;;;12.00;7.50;;;;;;;1.64;100.00;97469.03;5062139;28;20263;-79
2023/12/08 06:14:06;;;;;;;16.00;8.03;;;;;;;1.58;100.00;97465.84;5061964;28;20214;-80
2023/12/08 06:16:32;;;;;;;13.57;7.60;;;;;;;1.58;100.00;97471.91;5062449;28;20240;-80
2023/12/08 06:18:59;;;;;;;11.97;8.23;;;;;;;1.62;100.00;97470.03;5062611;28;20215;-79
2023/12/08 06:21:26;;;;;;;12.43;7.50;;;;;;;1.65;100.00;97465.53;5060231;28;20254;-80
2023/12/08 06:23:53;;;;;;;13.80;7.90;;;;;;;1.64;100.00;97463.84;5060138;28;20697;-80
2023/12/08 06:26:20;;;;;;;16.43;8.13;;;;;;;1.63;100.00;97469.97;5060776;28;20299;-80
2023/12/08 06:28:46;;;;;;;14.63;8.47;;;;;;;1.59;100.00;97464.97;5060793;28;20220;-79
2023/12/08 06:31:13;;;;;;;15.43;8.40;;;;;;;1.54;100.00;97466.91;5055539;28;20531;-79
2023/12/08 06:33:40;;;;;;;12.70;8.17;;;;;;;1.53;100.00;97466.06;5054613;28;20207;-80
2023/12/08 06:36:07;;;;;;;14.07;8.13;;;;;;;1.53;100.00;97473.88;5054537;28;20215;-79
2023/12/08 06:38:34;;;;;;;13.63;8.07;;;;;;;1.52;100.00;97474.78;5057494;28;20547;-78
2023/12/08 06:41:02;;;;;;;18.53;9.33;;;;;;;1.54;100.00;97474.72;5058551;28;20255;-79
2023/12/08 06:43:28;;;;;;;15.40;9.50;;;;;;;1.52;100.00;97461.78;5058059;28;20215;-80
2023/12/08 06:45:54;;;;;;;17.33;8.70;;;;;;;1.52;100.00;97472.19;5058131;28;20248;-78
2023/12/08 06:48:21;;;;;;;15.50;9.33;;;;;;;1.56;100.00;97467.69;5058511;28;20303;-78
2023/12/08 06:50:48;;;;;;;16.70;9.10;;;;;;;1.57;100.00;97475.44;5058434;28;20223;-78
2023/12/08 06:53:16;;;;;;;19.87;10.27;;;;;;;1.58;100.00;97474.53;5058129;28;20472;-78
2023/12/08 06:55:42;;;;;;;15.93;9.80;;;;;;;1.56;100.00;97478.97;5057536;28;20208;-78
2023/12/08 06:58:10;;;;;;;16.93;9.57;;;;;;;1.57;100.00;97487.59;5058167;28;20709;-78
2023/12/08 07:00:37;;;;;;;14.07;9.50;;;;;;;1.60;100.00;97485.69;5057868;28;20212;-78
2023/12/08 07:03:03;;;;;;;19.43;9.70;;;;;;;1.61;100.00;97473.53;5058672;28;20748;-78
2023/12/08 07:05:30;;;;;;;16.00;9.33;;;;;;;1.59;100.00;97483.19;5058942;28;20210;-80
2023/12/08 07:07:57;;;;;;;14.07;9.47;;;;;;;1.62;100.00;97485.66;5058843;28;20203;-78
2023/12/08 07:10:24;;;;;;;16.50;9.80;;;;;;;1.58;100.00;97479.72;5058594;28;20339;-78
2023/12/08 07:12:50;;;;;;;20.47;10.27;;;;;;;1.57;100.00;97487.59;5058045;28;20315;-79
2023/12/08 07:15:18;;;;;;;17.07;9.50;;;;;;;1.61;100.00;97476.97;5058095;28;20208;-79
2023/12/08 07:17:45;;;;;;;17.43;9.63;;;;;;;1.63;100.00;97480.38;5059455;28;20230;-78
2023/12/08 07:20:12;;;;;;;12.67;8.60;;;;;;;1.64;100.00;97487.28;5059019;28;20220;-78
2023/12/08 07:22:39;;;;;;;15.77;9.53;;;;;;;1.66;100.00;97484.59;5059592;28;20231;-78
2023/12/08 07:25:09;;;;;;;13.60;8.60;;;;;;;1.66;100.00;97495.84;5059156;28;20209;-78
2023/12/08 07:27:36;;;;;;;14.80;8.77;;;;;;;1.67;100.00;97487.13;5059650;28;20729;-78
2023/12/08 07:30:03;;;;;;;16.47;9.53;;;;;;;1.68;100.00;97481.03;5059373;28;20230;-78
2023/12/08 07:32:31;;;;;;;14.40;9.27;;;;;;;1.74;100.00;97485.97;5059858;28;20224;-78
2023/12/08 07:34:57;;;;;;;14.50;9.30;;;;;;;1.73;100.00;97486.84;5058415;28;20672;-79
2023/12/08 07:37:24;;;;;;;14.83;8.93;;;;;;;1.76;100.00;97489.34;5058861;28;20531;-78
2023/12/08 07:39:50;;;;;;;13.90;8.90;;;;;;;1.79;100.00;97491.78;5058666;28;20212;-78
2023/12/08 07:42:16;;;;;;;16.20;9.60;;;;;;;1.83;100.00;97488.13;5056687;28;20642;-78
2023/12/08 07:44:45;;;;;;;14.33;9.73;;;;;;;1.84;100.00;97483.78;5058091;28;20208;-78
2023/12/08 07:47:12;;;;;;;16.27;9.20;;;;;;;1.86;100.00;97485.41;5059567;28;20213;-78
2023/12/08 07:49:40;;;;;;;16.47;9.47;;;;;;;1.79;100.00;97481.38;5058016;28;20208;-78
2023/12/08 07:52:06;;;;;;;16.90;9.90;;;;;;;1.81;100.00;97479.56;5055978;28;20328;-78
2023/12/08 07:54:33;;;;;;;15.20;9.17;;;;;;;1.82;100.00;97486.44;5055352;28;20226;-78
2023/12/08 07:56:59;;;;;;;16.30;9.20;;;;;;;1.85;100.00;97486.31;5054849;28;20234;-78
2023/12/08 07:59:26;;;;;;;15.63;10.37;;;;;;;1.91;100.00;97482.59;5056228;28;20301;-79
2023/12/08 08:01:52;;;;;;;19.77;10.67;;;;;;;1.95;100.00;97489.34;5054904;28;20744;-78
2023/12/08 08:04:19;;;;;;;16.90;10.40;;;;;;;2.01;100.00;97486.44;5055221;28;20216;-78
2023/12/08 08:06:47;;;;;;;19.83;10.60;;;;;;;2.05;100.00;97488.88;5054774;28;20261;-77
2023/12/08 08:09:14;;;;;;;18.37;11.10;;;;;;;2.08;100.00;97491.31;5054134;28;20203;-78
2023/12/08 08:11:40;;;;;;;20.37;11.20;;;;;;;2.11;100.00;97499.00;5053578;28;20236;-77
2023/12/08 08:14:07;;;;;;;20.43;11.63;;;;;;;2.13;100.00;97497.16;5053164;28;20216;-77
2023/12/08 08:16:33;;;;;;;17.23;10.27;;;;;;;2.18;100.00;97490.00;5054691;28;20204;-78
2023/12/08 08:18:59;;;;;;;19.80;10.80;;;;;;;2.23;100.00;97493.22;5054154;28;20208;-78
2023/12/08 08:21:26;;;;;;;18.47;11.10;;;;;;;2.31;100.00;97496.31;5053442;28;20590;-78
2023/12/08 08:23:54;;;;;;;21.97;11.33;;;;;;;2.31;100.00;97498.94;5052471;28;20219;-78
2023/12/08 08:26:21;;;;;;;16.60;10.57;;;;;;;2.34;100.00;97506.59;5053382;28;20679;-77
2023/12/08 08:28:47;;;;;;;15.20;9.53;;;;;;;2.29;100.00;97506.00;5053240;28;20211;-77
2023/12/08 08:31:17;;;;;;;17.10;9.77;;;;;;;2.34;100.00;97511.81;5056006;28;20238;-79
2023/12/08 08:33:44;;;;;;;16.77;10.33;;;;;;;2.38;100.00;97512.53;5060799;28;20208;-78
2023/12/08 08:36:10;;;;;;;18.47;10.73;;;;;;;2.42;100.00;97514.06;5058712;28;20211;-78
2023/12/08 08:38:37;;;;;;;15.13;8.97;;;;;;;2.44;100.00;97513.06;5058985;28;20209;-78
2023/12/08 08:41:05;;;;;;;17.90;10.00;;;;;;;2.47;100.00;97512.94;5058924;28;20303;-77
2023/12/08 08:43:32;;;;;;;20.80;10.70;;;;;;;2.52;100.00;97510.94;5058542;28;20212;-78
2023/12/08 08:45:59;;;;;;;18.60;10.87;;;;;;;2.59;100.00;97517.59;5057092;28;20212;-79
2023/12/08 08:48:26;;;;;;;19.17;9.93;;;;;;;2.64;100.00;97520.78;5060197;28;20223;-79
2023/12/08 08:50:53;;;;;;;15.97;9.60;;;;;;;2.67;100.00;97520.66;5058613;28;20236;-80
2023/12/08 08:53:19;;;;;;;14.87;8.73;;;;;;;2.73;100.00;97522.13;5058767;28;20219;-79
2023/12/08 08:55:46;;;;;;;17.03;9.13;;;;;;;2.78;100.00;97523.63;5060920;28;20223;-79
2023/12/08 08:58:14;;;;;;;20.47;9.97;;;;;;;2.78;100.00;97523.63;5062970;28;20211;-79
2023/12/08 09:00:40;;;;;;;16.07;9.63;;;;;;;2.84;100.00;97528.53;5061255;28;20204;-78
2023/12/08 09:03:07;;;;;;;18.73;9.90;;;;;;;2.87;100.00;97524.94;5062119;28;20224;-78
2023/12/08 09:05:36;;;;;;;20.33;11.23;;;;;;;2.90;100.00;97528.25;5062109;28;20207;-78
2023/12/08 09:08:02;;;;;;;23.33;12.00;;;;;;;2.94;100.00;97527.16;5063615;28;20210;-78
2023/12/08 09:10:29;;;;;;;16.77;10.30;;;;;;;2.97;100.00;97532.25;5055330;28;20216;-78
2023/12/08 09:12:55;;;;;;;23.00;11.00;;;;;;;3.00;100.00;97529.47;5050323;28;20237;-78
2023/12/08 09:15:23;;;;;;;18.40;10.53;;;;;;;3.00;100.00;97532.06;5046661;28;20212;-77
2023/12/08 09:17:50;;;;;;;19.30;10.33;;;;;;;3.03;100.00;97529.34;5043705;28;20310;-77
2023/12/08 09:20:16;;;;;;;18.30;10.57;;;;;;;3.05;100.00;97542.31;5055269;28;20216;-78
2023/12/08 09:22:43;;;;;;;15.70;9.93;;;;;;;3.06;100.00;97538.78;5055546;28;20220;-79
2023/12/08 09:25:10;;;;;;;17.30;10.83;;;;;;;3.06;100.00;97542.22;5050487;28;20674;-76
2023/12/08 09:27:37;;;;;;;22.90;12.50;;;;;;;3.13;100.00;97535.78;5044769;28;21216;-78
2023/12/08 09:30:05;;;;;;;17.90;11.03;;;;;;;3.16;100.00;97535.63;5050436;28;20679;-78
2023/12/08 09:32:33;;;;;;;19.43;10.60;;;;;;;3.21;100.00;97538.88;5053896;28;20324;-77
2023/12/08 09:34:59;;;;;;;18.27;10.40;;;;;;;3.29;100.00;97531.50;5057207;28;20212;-80
2023/12/08 09:37:26;;;;;;;18.13;10.73;;;;;;;3.34;100.00;97529.50;5057687;28;20561;-81
2023/12/08 09:39:52;;;;;;;21.47;11.60;;;;;;;3.43;100.00;97528.19;5055593;28;20209;-80
2023/12/08 09:42:27;;;;;;;19.33;11.53;;;;;;;3.48;100.00;97527.03;5054051;28;20229;-78
2023/12/08 09:44:55;;;;;;;19.30;11.30;;;;;;;3.48;100.00;97511.34;5052968;28;20639;-78
2023/12/08 09:47:23;;;;;;;20.27;10.97;;;;;;;3.54;100.00;97521.50;5054041;28;20204;-78
2023/12/08 09:49:52;;;;;;;19.53;10.73;;;;;;;3.56;100.00;97518.81;5054985;28;20674;-78
2023/12/08 09:52:21;;;;;;;18.97;10.37;;;;;;;3.60;100.00;97520.34;5053504;28;20241;-79
2023/12/08 09:54:48;;;;;;;23.50;12.07;;;;;;;3.57;100.00;97523.97;5052796;28;20215;-77
2023/12/08 09:57:15;;;;;;;20.33;11.03;;;;;;;3.62;100.00;97521.94;5054526;28;20205;-79
2023/12/08 09:59:43;;;;;;;18.53;11.23;;;;;;;3.66;100.00;97513.03;5053758;28;20215;-77
2023/12/08 10:02:10;;;;;;;20.40;11.53;;;;;;;3.68;100.00;97513.78;5053392;28;20322;-79
2023/12/08 10:04:36;;;;;;;18.33;10.80;;;;;;;3.70;100.00;97511.09;5053118;28;20220;-77
2023/12/08 10:07:09;;;;;;;20.93;11.50;;;;;;;3.74;100.00;97516.06;5053183;28;20213;-79
2023/12/08 10:09:36;;;;;;;18.30;10.53;;;;;;;3.78;100.00;97512.38;5054165;28;20214;-79
2023/12/08 10:12:02;;;;;;;19.07;9.87;;;;;;;3.83;100.00;97518.22;5053476;28;20233;-78
2023/12/08 10:14:31;;;;;;;16.57;9.87;;;;;;;3.87;100.00;97517.16;5053606;28;20224;-78
2023/12/08 10:16:58;;;;;;;16.07;9.57;;;;;;;3.90;100.00;97513.50;5053489;28;20207;-78
2023/12/08 10:19:24;;;;;;;15.40;9.67;;;;;;;3.95;100.00;97511.50;5055676;28;20210;-79
2023/12/08 10:22:00;;;;;;;17.93;11.07;;;;;;;3.98;100.00;97511.34;5053232;28;20225;-79
2023/12/08 10:24:30;;;;;;;17.60;9.50;;;;;;;4.02;100.00;97518.09;5052212;28;20625;-79
2023/12/08 10:26:57;;;;;;;17.83;10.40;;;;;;;4.03;100.00;97510.16;5053878;28;20212;-79
2023/12/08 10:29:24;;;;;;;16.23;9.77;;;;;;;4.07;100.00;97516.06;5052624;28;20216;-77
2023/12/08 10:31:52;;;;;;;16.80;10.13;;;;;;;4.08;100.00;97510.78;5052503;28;20698;-77
2023/12/08 10:34:18;;;;;;;20.40;11.13;;;;;;;4.08;100.00;97508.16;5051746;28;20212;-76
2023/12/08 10:36:45;;;;;;;17.83;10.53;;;;;;;4.13;100.00;97510.53;5052492;28;20223;-77
2023/12/08 10:39:16;;;;;;;16.97;10.00;;;;;;;4.18;100.00;97505.91;5052373;28;20213;-77
2023/12/08 10:41:44;;;;;;;15.97;10.20;;;;;;;4.21;100.00;97514.41;5052616;28;20583;-77
2023/12/08 10:44:12;;;;;;;16.57;9.60;;;;;;;4.24;100.00;97516.88;5051860;28;20268;-77
2023/12/08 10:46:39;;;;;;;15.67;10.10;;;;;;;4.25;100.00;97510.72;5052166;28;20240;-77
2023/12/08 10:49:08;;;;;;;16.17;10.00;;;;;;;4.27;100.00;97518.50;5052381;28;20209;-77
2023/12/08 10:51:35;;;;;;;15.50;9.37;;;;;;;4.30;100.00;97513.06;5052177;28;20559;-77
2023/12/08 10:54:03;;;;;;;17.87;10.60;;;;;;;4.34;100.00;97514.59;5052072;28;20220;-77
2023/12/08 10:56:29;;;;;;;16.53;11.00;;;;;;;4.37;100.00;97506.59;5052324;28;20255;-77
2023/12/08 10:59:03;;;;;;;18.37;11.20;;;;;;;4.38;100.00;97506.50;5052102;28;20221;-77
2023/12/08 11:01:34;;;;;;;16.27;9.87;;;;;;;4.43;100.00;97501.88;5052302;28;20349;-77
2023/12/08 11:04:05;;;;;;;18.13;10.00;;;;;;;4.47;100.00;97505.16;5052764;28;20277;-78
2023/12/08 11:06:34;;;;;;;14.80;9.03;;;;;;;4.50;100.00;97500.59;5052886;28;20241;-78
2023/12/08 11:09:06;;;;;;;17.60;9.60;;;;;;;4.55;100.00;97502.97;5052126;28;20209;-78
2023/12/08 11:11:33;;;;;;;18.13;10.23;;;;;;;4.57;100.00;97496.72;5052227;28;20237;-77
2023/12/08 11:14:09;;;;;;;15.67;9.70;;;;;;;4.67;100.00;97500.53;5051905;28;20206;-78
2023/12/08 11:16:44;;;;;;;16.47;10.00;;;;;;;4.73;100.00;97497.56;5051959;28;20214;-78
2023/12/08 11:19:12;;;;;;;18.67;10.20;;;;;;;4.79;100.00;97501.59;5052325;28;20224;-77
2023/12/08 11:21:38;;;;;;;22.33;10.60;;;;;;;4.83;100.00;97503.13;5051503;28;20226;-78
2023/12/08 11:24:07;;;;;;;16.17;10.20;;;;;;;4.84;100.00;97508.25;5051204;28;20706;-78